createdAt,value
2018-09-17T00:00:13.808Z,23.1
2018-09-17T00:01:03.992Z,23.1
2018-09-17T00:01:53.977Z,23.1
2018-09-17T00:02:44.103Z,23.1
2018-09-17T00:03:33.787Z,23.1
2018-09-17T00:04:24.468Z,23.1
2018-09-17T00:05:14.245Z,23.1
2018-09-17T00:06:04.598Z,23.1
2018-09-17T00:06:55.082Z,23.1
2018-09-17T00:07:44.980Z,23.1
2018-09-17T00:08:34.803Z,23.1
2018-09-17T00:09:24.550Z,23.1
2018-09-17T00:10:14.752Z,23.1
2018-09-17T00:11:04.379Z,23.1
2018-09-17T00:11:55.028Z,23.1
2018-09-17T00:12:45.046Z,23.1
2018-09-17T00:13:35.809Z,23.1
2018-09-17T00:14:24.915Z,23.1
2018-09-17T00:15:16.137Z,23.1
2018-09-17T00:16:04.737Z,23.1
2018-09-17T00:16:55.669Z,23.1
2018-09-17T00:17:45.085Z,23.1
2018-09-17T00:18:34.961Z,23.1
2018-09-17T00:19:25.361Z,23.1
2018-09-17T00:20:15.159Z,23.1
2018-09-17T00:21:05.519Z,23.1
2018-09-17T00:21:55.856Z,23.1
2018-09-17T00:22:44.779Z,23.1
2018-09-17T00:23:35.382Z,23.1
2018-09-17T00:24:25.761Z,23.1
2018-09-17T00:25:15.836Z,23.1
2018-09-17T00:26:05.013Z,23.1
2018-09-17T00:26:56.011Z,23.1
2018-09-17T00:27:45.116Z,23.1
2018-09-17T00:28:36.112Z,23.1
2018-09-17T00:29:25.663Z,23.1
2018-09-17T00:30:15.869Z,23.1
2018-09-17T00:31:06.243Z,23.1
2018-09-17T00:31:56.233Z,23.1
2018-09-17T00:32:46.055Z,23.1
2018-09-17T00:33:35.936Z,23.1
2018-09-17T00:34:26.266Z,23.1
2018-09-17T00:35:16.833Z,23.1
2018-09-17T00:36:06.100Z,23.1
2018-09-17T00:36:57.524Z,23.1
2018-09-17T00:56:31.457Z,23
2018-09-17T00:57:20.757Z,23.1
2018-09-17T00:58:11.661Z,23.1
2018-09-17T00:59:01.146Z,23.1
2018-09-17T00:59:51.006Z,23.1
2018-09-17T01:00:41.551Z,23.1
2018-09-17T01:01:31.635Z,23.1
2018-09-17T01:02:21.428Z,23.1
2018-09-17T01:03:11.491Z,23
2018-09-17T01:04:00.935Z,23.1
2018-09-17T01:04:51.618Z,23.1
2018-09-17T01:05:41.371Z,23.1
2018-09-17T01:06:32.001Z,23
2018-09-17T01:07:21.770Z,23
2018-09-17T01:08:12.965Z,23.1
2018-09-17T01:09:01.903Z,23
2018-09-17T01:09:52.528Z,23
2018-09-17T01:10:42.298Z,23.1
2018-09-17T01:11:32.576Z,23.1
2018-09-17T01:12:22.805Z,23.1
2018-09-17T01:13:12.468Z,23
2018-09-17T01:14:01.675Z,23
2018-09-17T01:14:53.155Z,23
2018-09-17T01:15:41.787Z,23
2018-09-17T01:16:32.175Z,23
2018-09-17T01:17:22.542Z,23
2018-09-17T01:18:12.543Z,23
2018-09-17T01:19:02.935Z,23
2018-09-17T01:19:52.949Z,23
2018-09-17T01:20:43.112Z,23
2018-09-17T01:21:33.264Z,23
2018-09-17T01:22:23.170Z,23
2018-09-17T01:23:13.645Z,23
2018-09-17T01:24:03.260Z,23
2018-09-17T01:24:53.960Z,23
2018-09-17T01:25:43.679Z,23
2018-09-17T01:26:33.429Z,23
2018-09-17T01:27:23.496Z,23
2018-09-17T01:28:14.159Z,23
2018-09-17T01:29:03.926Z,23
2018-09-17T01:29:53.729Z,23
2018-09-17T01:30:44.885Z,23
2018-09-17T01:31:34.274Z,23
2018-09-17T01:32:24.132Z,23
2018-09-17T01:33:14.769Z,23
2018-09-17T01:34:04.890Z,23
2018-09-17T01:34:54.725Z,23
2018-09-17T01:35:43.889Z,23
2018-09-17T01:36:33.632Z,23
2018-09-17T01:37:23.793Z,23
2018-09-17T01:38:14.541Z,22.9
2018-09-17T01:39:04.414Z,23
2018-09-17T01:39:54.728Z,23
2018-09-17T01:40:44.809Z,23
2018-09-17T01:41:34.868Z,23
2018-09-17T01:42:24.575Z,23
2018-09-17T01:43:14.943Z,23
2018-09-17T01:44:05.070Z,23
2018-09-17T01:44:54.548Z,23
2018-09-17T01:45:44.876Z,23
2018-09-17T01:46:35.276Z,22.9
2018-09-17T01:47:25.660Z,23
2018-09-17T01:48:15.640Z,23
2018-09-17T01:49:05.420Z,23
2018-09-17T01:49:55.753Z,23
2018-09-17T01:50:45.250Z,22.9
2018-09-17T01:51:35.589Z,22.9
2018-09-17T01:52:26.258Z,23
2018-09-17T01:53:15.176Z,23
2018-09-17T01:54:06.078Z,23
2018-09-17T01:54:55.410Z,23
2018-09-17T01:55:45.090Z,23
2018-09-17T01:56:35.430Z,23
2018-09-17T01:57:25.012Z,23
2018-09-17T01:58:15.522Z,23
2018-09-17T01:59:05.292Z,22.9
2018-09-17T01:59:55.612Z,22.9
2018-09-17T02:00:45.992Z,22.9
2018-09-17T02:01:36.077Z,23
2018-09-17T02:02:25.861Z,22.9
2018-09-17T02:03:16.042Z,22.9
2018-09-17T02:04:06.291Z,22.9
2018-09-17T02:04:56.606Z,22.9
2018-09-17T02:05:46.941Z,22.9
2018-09-17T02:06:36.727Z,22.9
2018-09-17T02:07:25.741Z,22.9
2018-09-17T02:08:16.728Z,22.9
2018-09-17T02:09:07.891Z,22.9
2018-09-17T02:09:57.906Z,22.9
2018-09-17T02:10:46.485Z,22.9
2018-09-17T02:11:37.116Z,22.9
2018-09-17T02:12:26.626Z,22.9
2018-09-17T02:13:17.026Z,22.9
2018-09-17T02:14:07.019Z,22.9
2018-09-17T02:14:57.273Z,22.9
2018-09-17T02:15:47.454Z,22.9
2018-09-17T02:16:37.467Z,22.9
2018-09-17T02:17:27.270Z,22.9
2018-09-17T02:18:17.850Z,22.9
2018-09-17T02:19:07.403Z,22.9
2018-09-17T02:19:57.490Z,22.9
2018-09-17T02:20:47.488Z,22.9
2018-09-17T02:21:37.538Z,22.9
2018-09-17T02:22:27.968Z,22.9
2018-09-17T02:23:16.923Z,22.9
2018-09-17T02:24:07.838Z,22.9
2018-09-17T02:24:58.075Z,22.9
2018-09-17T02:25:48.413Z,22.9
2018-09-17T02:26:38.518Z,22.9
2018-09-17T02:27:27.706Z,22.9
2018-09-17T02:28:17.745Z,22.9
2018-09-17T02:29:08.650Z,22.9
2018-09-17T02:29:58.782Z,22.9
2018-09-17T02:30:47.656Z,22.9
2018-09-17T02:31:38.648Z,22.9
2018-09-17T02:32:28.713Z,22.9
2018-09-17T02:33:18.447Z,22.9
2018-09-17T02:34:09.030Z,22.9
2018-09-17T02:34:58.850Z,22.9
2018-09-17T02:35:48.600Z,22.9
2018-09-17T02:36:38.722Z,22.9
2018-09-17T02:37:29.050Z,22.9
2018-09-17T02:38:18.542Z,22.9
2018-09-17T02:39:09.397Z,22.9
2018-09-17T02:39:59.508Z,22.9
2018-09-17T02:40:49.272Z,22.9
2018-09-17T02:41:39.093Z,22.9
2018-09-17T02:42:29.455Z,22.9
2018-09-17T02:43:18.641Z,22.9
2018-09-17T02:44:09.780Z,22.9
2018-09-17T02:44:59.093Z,22.9
2018-09-17T02:45:49.375Z,22.9
2018-09-17T02:46:39.444Z,22.9
2018-09-17T02:47:29.241Z,22.9
2018-09-17T02:48:19.814Z,22.9
2018-09-17T02:49:10.231Z,22.9
2018-09-17T02:50:00.112Z,22.9
2018-09-17T02:50:50.654Z,22.9
2018-09-17T02:51:40.415Z,22.9
2018-09-17T02:52:30.191Z,22.9
2018-09-17T02:53:20.563Z,22.9
2018-09-17T02:54:09.994Z,22.9
2018-09-17T02:55:00.344Z,22.9
2018-09-17T02:55:50.199Z,22.9
2018-09-17T02:56:40.857Z,22.9
2018-09-17T02:57:30.234Z,22.9
2018-09-17T02:58:20.627Z,22.9
2018-09-17T02:59:12.167Z,22.9
2018-09-17T03:00:01.002Z,22.9
2018-09-17T03:00:50.229Z,22.9
2018-09-17T03:01:40.594Z,22.9
2018-09-17T03:02:30.691Z,22.9
2018-09-17T03:03:19.922Z,22.9
2018-09-17T03:04:10.871Z,22.9
2018-09-17T03:05:00.299Z,22.9
2018-09-17T03:05:50.748Z,22.9
2018-09-17T03:06:41.571Z,22.9
2018-09-17T03:07:31.070Z,22.9
2018-09-17T03:08:20.672Z,22.9
2018-09-17T03:09:11.108Z,22.9
2018-09-17T03:10:01.009Z,22.9
2018-09-17T03:10:51.029Z,22.9
2018-09-17T03:11:41.360Z,22.9
2018-09-17T03:12:30.888Z,22.9
2018-09-17T03:13:21.805Z,22.9
2018-09-17T03:14:11.585Z,22.9
2018-09-17T03:15:00.818Z,22.9
2018-09-17T03:15:50.888Z,22.9
2018-09-17T03:16:42.190Z,22.9
2018-09-17T03:17:32.074Z,22.9
2018-09-17T03:18:22.131Z,22.9
2018-09-17T03:19:12.434Z,22.9
2018-09-17T03:20:01.688Z,22.9
2018-09-17T03:20:51.677Z,22.9
2018-09-17T03:21:42.370Z,22.9
2018-09-17T03:22:32.696Z,22.9
2018-09-17T03:23:22.173Z,22.9
2018-09-17T03:24:12.782Z,22.9
2018-09-17T03:25:02.955Z,22.9
2018-09-17T03:25:52.125Z,22.8
2018-09-17T03:26:42.442Z,22.9
2018-09-17T03:27:33.057Z,22.9
2018-09-17T03:28:22.840Z,22.8
2018-09-17T03:29:13.202Z,22.8
2018-09-17T03:30:03.104Z,22.8
2018-09-17T03:30:52.434Z,22.9
2018-09-17T03:31:42.904Z,22.9
2018-09-17T03:32:32.916Z,22.9
2018-09-17T03:33:23.472Z,22.8
2018-09-17T03:34:12.994Z,22.9
2018-09-17T03:35:02.776Z,22.8
2018-09-17T03:35:53.401Z,22.9
2018-09-17T03:36:43.494Z,22.8
2018-09-17T03:37:33.562Z,22.8
2018-09-17T03:38:23.322Z,22.8
2018-09-17T03:39:13.624Z,22.8
2018-09-17T03:40:03.994Z,22.9
2018-09-17T03:40:53.796Z,22.8
2018-09-17T03:41:43.534Z,22.9
2018-09-17T03:42:33.979Z,22.8
2018-09-17T03:43:24.292Z,22.8
2018-09-17T03:44:13.599Z,22.8
2018-09-17T03:45:04.388Z,22.8
2018-09-17T03:45:53.548Z,22.8
2018-09-17T03:46:45.835Z,22.8
2018-09-17T03:47:33.923Z,22.8
2018-09-17T03:48:24.688Z,22.8
2018-09-17T03:49:15.004Z,22.8
2018-09-17T03:50:04.243Z,22.9
2018-09-17T03:50:53.913Z,22.8
2018-09-17T03:51:44.878Z,22.8
2018-09-17T05:25:27.383Z,22.7
2018-09-17T05:26:16.099Z,22.7
2018-09-17T05:27:07.036Z,22.7
2018-09-17T05:27:56.747Z,22.7
2018-09-17T05:28:46.651Z,22.7
2018-09-17T05:29:36.422Z,22.7
2018-09-17T05:30:26.781Z,22.7
2018-09-17T05:31:17.022Z,22.7
2018-09-17T05:32:07.089Z,22.7
2018-09-17T05:32:57.206Z,22.7
2018-09-17T05:33:46.651Z,22.7
2018-09-17T05:34:36.524Z,22.7
2018-09-17T05:35:27.099Z,22.7
2018-09-17T05:36:17.680Z,22.7
2018-09-17T05:37:07.535Z,22.7
2018-09-17T05:37:57.530Z,22.7
2018-09-17T05:38:47.247Z,22.7
2018-09-17T05:39:37.770Z,22.7
2018-09-17T05:40:27.975Z,22.7
2018-09-17T05:41:17.732Z,22.7
2018-09-17T05:42:07.264Z,22.7
2018-09-17T05:42:57.593Z,22.6
2018-09-17T05:43:47.953Z,22.7
2018-09-17T05:44:39.205Z,22.6
2018-09-17T05:45:28.209Z,22.6
2018-09-17T05:46:18.196Z,22.6
2018-09-17T05:47:08.567Z,22.7
2018-09-17T05:47:57.414Z,22.7
2018-09-17T05:48:47.695Z,22.7
2018-09-17T05:49:38.397Z,22.7
2018-09-17T05:50:28.814Z,22.7
2018-09-17T05:51:18.574Z,22.7
2018-09-17T05:52:08.762Z,22.7
2018-09-17T05:52:58.192Z,22.7
2018-09-17T05:53:49.080Z,22.7
2018-09-17T05:54:38.288Z,22.7
2018-09-17T05:55:29.157Z,22.7
2018-09-17T05:56:18.994Z,22.7
2018-09-17T05:57:08.962Z,22.7
2018-09-17T05:57:59.031Z,22.7
2018-09-17T05:58:49.403Z,22.7
2018-09-17T05:59:39.389Z,22.7
2018-09-17T06:00:28.351Z,22.7
2018-09-17T06:01:18.470Z,22.7
2018-09-17T06:02:09.871Z,22.7
2018-09-17T06:02:59.112Z,22.7
2018-09-17T06:03:49.192Z,22.7
2018-09-17T06:04:40.133Z,22.7
2018-09-17T06:05:30.033Z,22.7
2018-09-17T06:06:19.940Z,22.8
2018-09-17T06:07:11.301Z,22.7
2018-09-17T06:07:59.557Z,22.8
2018-09-17T06:08:49.849Z,22.8
2018-09-17T06:09:40.186Z,22.8
2018-09-17T06:10:30.002Z,22.7
2018-09-17T06:11:20.716Z,22.8
2018-09-17T06:12:10.169Z,22.8
2018-09-17T06:12:59.884Z,22.8
2018-09-17T06:13:51.082Z,22.8
2018-09-17T06:14:41.168Z,22.8
2018-09-17T06:15:29.748Z,22.8
2018-09-17T06:16:21.031Z,22.8
2018-09-17T06:17:10.076Z,22.8
2018-09-17T06:17:59.799Z,22.8
2018-09-17T06:18:50.110Z,22.8
2018-09-17T06:19:39.054Z,22.8
2018-09-17T06:20:29.753Z,22.8
2018-09-17T06:21:20.779Z,22.8
2018-09-17T06:22:10.386Z,22.8
2018-09-17T06:23:00.958Z,22.8
2018-09-17T06:23:50.496Z,22.8
2018-09-17T06:24:41.058Z,22.8
2018-09-17T06:25:30.591Z,22.8
2018-09-17T06:26:20.688Z,22.8
2018-09-17T06:27:11.248Z,22.8
2018-09-17T06:28:01.813Z,22.8
2018-09-17T06:28:51.479Z,22.8
2018-09-17T06:29:40.893Z,22.8
2018-09-17T06:30:31.500Z,22.8
2018-09-17T06:31:21.600Z,22.8
2018-09-17T06:32:11.925Z,22.8
2018-09-17T06:33:00.875Z,22.8
2018-09-17T06:33:52.042Z,22.8
2018-09-17T06:34:41.540Z,22.8
2018-09-17T06:35:31.887Z,22.8
2018-09-17T06:36:22.781Z,22.8
2018-09-17T06:37:11.732Z,22.8
2018-09-17T06:38:01.833Z,22.8
2018-09-17T06:38:51.809Z,22.8
2018-09-17T06:39:42.202Z,22.8
2018-09-17T06:40:32.227Z,22.8
2018-09-17T06:41:22.608Z,22.8
2018-09-17T06:42:13.659Z,22.8
2018-09-17T06:43:02.805Z,22.8
2018-09-17T06:43:52.459Z,22.8
2018-09-17T06:44:42.245Z,22.8
2018-09-17T06:45:32.865Z,22.8
2018-09-17T06:46:23.042Z,22.8
2018-09-17T06:47:11.919Z,22.8
2018-09-17T06:48:03.131Z,22.8
2018-09-17T06:48:52.059Z,22.8
2018-09-17T06:49:42.674Z,22.8
2018-09-17T06:50:32.742Z,22.8
2018-09-17T06:51:23.931Z,22.8
2018-09-17T06:52:13.665Z,22.8
2018-09-17T06:53:03.584Z,22.8
2018-09-17T06:53:53.649Z,22.8
2018-09-17T06:54:42.790Z,22.8
2018-09-17T06:55:33.053Z,22.8
2018-09-17T06:56:23.375Z,22.8
2018-09-17T06:57:13.448Z,22.8
2018-09-17T06:58:03.570Z,22.8
2018-09-17T06:58:53.064Z,22.8
2018-09-17T06:59:42.247Z,22.8
2018-09-17T07:00:33.918Z,22.8
2018-09-17T07:01:24.264Z,22.8
2018-09-17T07:02:13.563Z,22.8
2018-09-17T07:03:03.612Z,22.8
2018-09-17T07:03:53.992Z,22.8
2018-09-17T07:04:44.045Z,22.8
2018-09-17T07:05:34.674Z,22.8
2018-09-17T07:06:24.722Z,22.8
2018-09-17T07:07:13.670Z,22.8
2018-09-17T07:08:03.708Z,22.8
2018-09-17T07:08:54.353Z,22.8
2018-09-17T07:09:44.159Z,22.8
2018-09-17T07:10:33.967Z,22.8
2018-09-17T07:11:23.658Z,22.8
2018-09-17T07:12:14.022Z,22.8
2018-09-17T07:13:04.946Z,22.8
2018-09-17T07:13:54.439Z,22.8
2018-09-17T07:14:44.745Z,22.8
2018-09-17T07:15:34.144Z,22.8
2018-09-17T07:16:25.152Z,22.8
2018-09-17T07:17:14.951Z,22.8
2018-09-17T07:18:05.373Z,22.8
2018-09-17T07:18:55.077Z,22.8
2018-09-17T07:19:45.434Z,22.8
2018-09-17T07:20:34.366Z,22.8
2018-09-17T07:21:25.010Z,22.8
2018-09-17T07:22:14.783Z,22.8
2018-09-17T07:23:05.116Z,22.8
2018-09-17T07:23:54.983Z,22.8
2018-09-17T07:24:44.951Z,22.8
2018-09-17T07:25:35.896Z,22.8
2018-09-17T07:26:25.645Z,22.8
2018-09-17T07:27:15.779Z,22.8
2018-09-17T07:28:05.833Z,22.8
2018-09-17T07:28:54.796Z,22.8
2018-09-17T07:29:45.928Z,22.8
2018-09-17T07:30:36.041Z,22.8
2018-09-17T07:31:26.330Z,22.8
2018-09-17T07:32:15.533Z,22.8
2018-09-17T07:33:05.863Z,22.8
2018-09-17T07:33:56.208Z,22.8
2018-09-17T07:34:46.305Z,22.8
2018-09-17T07:35:36.301Z,22.8
2018-09-17T07:36:28.945Z,22.8
2018-09-17T07:37:16.161Z,22.8
2018-09-17T07:38:05.177Z,22.8
2018-09-17T07:38:56.647Z,22.8
2018-09-17T07:39:46.375Z,22.8
2018-09-17T07:40:36.880Z,22.8
2018-09-17T07:41:26.977Z,22.8
2018-09-17T07:42:16.674Z,22.8
2018-09-17T07:43:07.116Z,22.8
2018-09-17T07:43:56.685Z,22.8
2018-09-17T07:44:46.550Z,22.8
2018-09-17T07:45:37.096Z,22.8
2018-09-17T07:46:26.367Z,22.8
2018-09-17T07:47:16.910Z,22.8
2018-09-17T07:48:07.512Z,22.8
2018-09-17T07:48:56.479Z,22.8
2018-09-17T07:49:47.387Z,22.8
2018-09-17T07:50:37.827Z,22.8
2018-09-17T07:51:26.712Z,22.8
2018-09-17T07:52:17.308Z,22.8
2018-09-17T07:53:08.485Z,22.8
2018-09-17T07:53:57.719Z,22.8
2018-09-17T07:54:47.062Z,22.8
2018-09-17T07:55:37.589Z,22.8
2018-09-17T07:56:27.644Z,22.8
2018-09-17T07:57:17.959Z,22.8
2018-09-17T07:58:07.776Z,22.8
2018-09-17T07:58:58.343Z,22.8
2018-09-17T07:59:48.657Z,22.8
2018-09-17T08:00:37.952Z,22.8
2018-09-17T08:01:28.625Z,22.8
2018-09-17T08:02:18.359Z,22.8
2018-09-17T08:03:08.818Z,22.8
2018-09-17T08:03:58.517Z,22.8
2018-09-17T08:04:48.342Z,22.8
2018-09-17T08:05:38.229Z,22.8
2018-09-17T08:06:28.278Z,22.8
2018-09-17T08:07:18.721Z,22.8
2018-09-17T08:08:08.548Z,22.8
2018-09-17T08:08:59.908Z,22.8
2018-09-17T08:09:48.869Z,22.8
2018-09-17T08:10:38.965Z,22.8
2018-09-17T08:11:28.239Z,22.8
2018-09-17T08:12:19.104Z,22.8
2018-09-17T08:13:08.952Z,22.8
2018-09-17T08:13:58.924Z,22.8
2018-09-17T08:14:49.602Z,22.8
2018-09-17T08:15:39.353Z,22.8
2018-09-17T08:16:28.893Z,22.8
2018-09-17T08:17:19.510Z,22.8
2018-09-17T08:18:09.322Z,22.8
2018-09-17T08:18:59.933Z,22.8
2018-09-17T08:19:50.010Z,22.8
2018-09-17T08:20:38.713Z,22.8
2018-09-17T08:21:30.090Z,22.8
2018-09-17T08:22:19.033Z,22.8
2018-09-17T08:23:09.652Z,22.8
2018-09-17T08:23:59.511Z,22.8
2018-09-17T08:24:49.537Z,22.8
2018-09-17T08:25:40.521Z,22.8
2018-09-17T08:26:29.615Z,22.8
2018-09-17T08:27:19.984Z,22.8
2018-09-17T08:28:09.994Z,22.8
2018-09-17T08:29:00.118Z,22.8
2018-09-17T08:29:50.029Z,22.8
2018-09-17T08:30:40.529Z,22.8
2018-09-17T08:31:30.088Z,22.8
2018-09-17T08:32:20.339Z,22.8
2018-09-17T08:33:10.132Z,22.8
2018-09-17T08:33:59.475Z,22.8
2018-09-17T08:34:51.209Z,22.8
2018-09-17T08:35:40.719Z,22.8
2018-09-17T08:36:30.452Z,22.8
2018-09-17T08:37:20.143Z,22.8
2018-09-17T08:38:10.548Z,22.8
2018-09-17T08:39:00.874Z,22.8
2018-09-17T08:39:51.824Z,22.8
2018-09-17T08:40:40.771Z,22.8
2018-09-17T08:41:31.511Z,22.8
2018-09-17T08:42:21.496Z,22.8
2018-09-17T08:43:10.458Z,22.8
2018-09-17T08:44:01.341Z,22.8
2018-09-17T08:44:51.610Z,22.8
2018-09-17T08:45:42.363Z,22.8
2018-09-17T08:46:32.294Z,22.8
2018-09-17T08:47:21.790Z,22.8
2018-09-17T08:48:11.543Z,22.8
2018-09-17T08:49:01.663Z,22.9
2018-09-17T08:49:52.148Z,22.8
2018-09-17T08:50:41.785Z,22.9
2018-09-17T08:51:32.098Z,22.8
2018-09-17T08:52:22.017Z,22.9
2018-09-17T08:53:13.309Z,22.9
2018-09-17T08:54:02.825Z,22.9
2018-09-17T08:54:51.531Z,22.9
2018-09-17T08:55:41.882Z,22.9
2018-09-17T08:56:31.987Z,22.9
2018-09-17T08:57:22.243Z,22.9
2018-09-17T08:58:13.794Z,22.9
2018-09-17T08:59:02.437Z,22.9
2018-09-17T08:59:53.029Z,22.9
2018-09-17T09:00:43.271Z,22.9
2018-09-17T09:01:33.137Z,22.9
2018-09-17T09:02:22.345Z,22.9
2018-09-17T09:03:12.978Z,22.9
2018-09-17T09:04:03.354Z,22.9
2018-09-17T09:04:52.551Z,22.9
2018-09-17T09:05:43.131Z,22.9
2018-09-17T09:06:33.158Z,22.9
2018-09-17T09:07:23.082Z,22.9
2018-09-17T09:08:12.714Z,22.9
2018-09-17T09:09:03.048Z,22.9
2018-09-17T09:09:53.744Z,22.9
2018-09-17T09:10:43.535Z,22.9
2018-09-17T09:11:33.325Z,22.9
2018-09-17T09:12:23.089Z,22.9
2018-09-17T09:13:13.970Z,22.9
2018-09-17T09:14:03.242Z,22.9
2018-09-17T09:14:53.338Z,22.9
2018-09-17T09:15:44.197Z,22.9
2018-09-17T09:16:34.231Z,22.9
2018-09-17T09:17:24.139Z,22.9
2018-09-17T09:18:13.815Z,22.9
2018-09-17T09:19:04.200Z,22.9
2018-09-17T09:19:54.036Z,22.9
2018-09-17T09:20:43.719Z,22.9
2018-09-17T09:21:34.277Z,22.9
2018-09-17T09:22:23.373Z,22.9
2018-09-17T09:23:14.039Z,22.9
2018-09-17T09:40:02.823Z,22.9
2018-09-17T09:40:45.425Z,22.9
2018-09-17T09:41:35.731Z,22.9
2018-09-17T09:42:25.501Z,22.9
2018-09-17T09:43:15.602Z,23
2018-09-17T09:44:05.905Z,22.9
2018-09-17T09:44:55.692Z,22.9
2018-09-17T09:45:46.922Z,23
2018-09-17T09:46:36.030Z,22.9
2018-09-17T09:47:25.636Z,23
2018-09-17T09:48:15.420Z,23
2018-09-17T09:49:05.134Z,22.9
2018-09-17T09:49:56.316Z,23
2018-09-17T09:50:46.377Z,23
2018-09-17T09:51:35.391Z,23
2018-09-17T09:52:25.744Z,23
2018-09-17T09:53:16.101Z,23
2018-09-17T09:54:06.418Z,23
2018-09-17T09:54:56.426Z,22.9
2018-09-17T09:55:46.970Z,23
2018-09-17T09:56:36.899Z,23
2018-09-17T09:57:26.314Z,23
2018-09-17T09:58:16.960Z,23
2018-09-17T09:59:05.934Z,23
2018-09-17T09:59:57.109Z,23
2018-09-17T10:00:47.383Z,23
2018-09-17T10:01:36.636Z,23
2018-09-17T10:02:27.058Z,23
2018-09-17T10:03:16.458Z,23
2018-09-17T10:04:06.558Z,23
2018-09-17T10:04:57.188Z,23
2018-09-17T10:05:46.838Z,23
2018-09-17T10:06:37.544Z,23
2018-09-17T10:07:27.371Z,23
2018-09-17T10:08:17.732Z,23
2018-09-17T10:09:07.506Z,23
2018-09-17T10:09:56.799Z,23.1
2018-09-17T10:10:47.978Z,23
2018-09-17T10:11:37.980Z,23
2018-09-17T10:12:27.221Z,23.1
2018-09-17T10:13:18.071Z,23
2018-09-17T10:14:07.095Z,23
2018-09-17T10:14:57.985Z,23.1
2018-09-17T10:15:48.313Z,23
2018-09-17T10:16:37.389Z,23.1
2018-09-17T10:17:27.638Z,23
2018-09-17T10:18:17.958Z,23
2018-09-17T10:19:07.181Z,23.1
2018-09-17T10:19:58.346Z,23.1
2018-09-17T10:20:48.377Z,23.1
2018-09-17T10:21:38.442Z,23.1
2018-09-17T10:22:28.533Z,23.1
2018-09-17T10:23:18.851Z,23.1
2018-09-17T10:24:08.666Z,23.1
2018-09-17T10:24:58.502Z,23.1
2018-09-17T10:25:49.332Z,23.1
2018-09-17T10:26:38.774Z,23.1
2018-09-17T10:27:28.877Z,23.1
2018-09-17T10:28:19.004Z,23.1
2018-09-17T10:29:09.047Z,23.1
2018-09-17T10:29:59.269Z,23.1
2018-09-17T10:30:48.645Z,23.1
2018-09-17T10:31:39.215Z,23.1
2018-09-17T10:32:29.254Z,23.1
2018-09-17T10:33:18.218Z,23.1
2018-09-17T10:34:09.184Z,23.1
2018-09-17T10:34:58.996Z,23.1
2018-09-17T10:35:49.222Z,23.1
2018-09-17T10:36:38.844Z,23.1
2018-09-17T10:37:29.921Z,23.1
2018-09-17T10:38:19.489Z,23.1
2018-09-17T10:39:10.096Z,23.1
2018-09-17T10:40:00.134Z,23.1
2018-09-17T10:40:49.701Z,23.1
2018-09-17T10:41:40.301Z,23.1
2018-09-17T10:42:29.740Z,23.1
2018-09-17T10:43:19.824Z,23.1
2018-09-17T10:44:10.179Z,23.1
2018-09-17T10:45:00.277Z,23.1
2018-09-17T10:45:50.319Z,23.1
2018-09-17T10:46:39.610Z,23.1
2018-09-17T10:47:30.691Z,23.1
2018-09-17T10:48:20.228Z,23.1
2018-09-17T10:49:10.864Z,23.1
2018-09-17T10:50:00.625Z,23.1
2018-09-17T10:50:50.689Z,23.1
2018-09-17T10:51:40.738Z,23.1
2018-09-17T10:52:29.951Z,23.1
2018-09-17T10:53:20.593Z,23.1
2018-09-17T10:54:11.248Z,23.1
2018-09-17T10:55:01.260Z,23.1
2018-09-17T10:55:50.275Z,23.1
2018-09-17T10:56:41.446Z,23.1
2018-09-17T10:57:32.151Z,23.1
2018-09-17T10:58:20.989Z,23.1
2018-09-17T10:59:11.737Z,23.1
2018-09-17T11:00:01.435Z,23.1
2018-09-17T11:00:51.407Z,23.1
2018-09-17T11:01:41.237Z,23.2
2018-09-17T11:02:30.997Z,23.2
2018-09-17T11:03:21.857Z,23.2
2018-09-17T11:04:11.674Z,23.2
2018-09-17T11:05:01.523Z,23.2
2018-09-17T11:05:51.840Z,23.2
2018-09-17T11:06:41.929Z,23.2
2018-09-17T11:07:31.977Z,23.2
2018-09-17T11:08:22.672Z,23.2
2018-09-17T11:09:12.402Z,23.2
2018-09-17T11:10:02.130Z,23.2
2018-09-17T11:10:52.474Z,23.2
2018-09-17T11:11:42.546Z,23.2
2018-09-17T11:12:32.593Z,23.2
2018-09-17T11:13:22.684Z,23.2
2018-09-17T11:14:11.905Z,23.2
2018-09-17T11:15:02.581Z,23.2
2018-09-17T11:15:52.584Z,23.2
2018-09-17T11:16:42.957Z,23.2
2018-09-17T11:17:34.643Z,23.3
2018-09-17T11:18:22.906Z,23.2
2018-09-17T11:19:13.274Z,23.2
2018-09-17T11:20:02.936Z,23.2
2018-09-17T11:20:53.043Z,23.2
2018-09-17T11:21:43.395Z,23.3
2018-09-17T11:22:33.113Z,23.3
2018-09-17T11:23:23.596Z,23.2
2018-09-17T11:24:12.933Z,23.2
2018-09-17T11:25:03.606Z,23.2
2018-09-17T11:25:53.064Z,23.3
2018-09-17T11:26:43.727Z,23.3
2018-09-17T11:27:33.744Z,23.3
2018-09-17T11:28:23.801Z,23.3
2018-09-17T11:29:13.571Z,23.3
2018-09-17T11:30:03.683Z,23.3
2018-09-17T11:30:54.018Z,23.3
2018-09-17T11:31:43.536Z,23.3
2018-09-17T11:32:34.420Z,23.3
2018-09-17T11:33:23.052Z,23.3
2018-09-17T11:34:13.323Z,23.3
2018-09-17T11:35:04.050Z,23.3
2018-09-17T11:35:54.412Z,23.3
2018-09-17T11:36:44.485Z,23.3
2018-09-17T11:37:34.565Z,23.3
2018-09-17T11:38:24.335Z,23.2
2018-09-17T11:39:14.045Z,23.3
2018-09-17T11:40:05.530Z,23.3
2018-09-17T11:40:54.552Z,23.3
2018-09-17T11:41:44.358Z,23.3
2018-09-17T11:42:34.414Z,23.3
2018-09-17T11:43:24.970Z,23.3
2018-09-17T11:44:14.751Z,23.2
2018-09-17T11:45:04.597Z,23.2
2018-09-17T11:45:54.848Z,23.3
2018-09-17T11:46:45.210Z,23.3
2018-09-17T11:47:34.703Z,23.3
2018-09-17T11:48:26.311Z,23.3
2018-09-17T11:49:14.812Z,23.3
2018-09-17T11:50:05.226Z,23.3
2018-09-17T11:50:55.237Z,23.3
2018-09-17T11:51:45.019Z,23.3
2018-09-17T11:52:35.632Z,23.3
2018-09-17T11:53:25.139Z,23.3
2018-09-17T11:54:15.304Z,23.3
2018-09-17T11:55:05.311Z,23.3
2018-09-17T11:55:55.671Z,23.3
2018-09-17T11:56:45.657Z,23.3
2018-09-17T11:57:36.049Z,23.3
2018-09-17T11:58:25.516Z,23.3
2018-09-17T11:59:15.686Z,23.3
2018-09-17T12:00:06.227Z,23.3
2018-09-17T12:00:56.066Z,23.3
2018-09-17T12:01:46.999Z,23.3
2018-09-17T12:02:36.437Z,23.3
2018-09-17T12:03:26.202Z,23.3
2018-09-17T12:04:16.019Z,23.3
2018-09-17T12:05:06.022Z,23.3
2018-09-17T12:05:56.372Z,23.3
2018-09-17T12:06:46.721Z,23.3
2018-09-17T12:07:36.511Z,23.3
2018-09-17T12:08:26.376Z,23.3
2018-09-17T12:09:16.854Z,23.3
2018-09-17T12:10:06.227Z,23.3
2018-09-17T12:10:56.393Z,23.3
2018-09-17T12:11:46.328Z,23.3
2018-09-17T12:12:36.665Z,23.3
2018-09-17T12:13:26.971Z,23.3
2018-09-17T12:14:16.786Z,23.3
2018-09-17T12:15:06.823Z,23.3
2018-09-17T12:15:56.549Z,23.3
2018-09-17T12:16:46.497Z,23.3
2018-09-17T12:17:37.535Z,23.3
2018-09-17T12:18:27.088Z,23.3
2018-09-17T12:19:17.920Z,23.3
2018-09-17T12:20:07.264Z,23.3
2018-09-17T12:20:57.580Z,23.3
2018-09-17T12:21:47.650Z,23.3
2018-09-17T12:22:37.950Z,23.3
2018-09-17T12:23:27.505Z,23.3
2018-09-17T12:24:17.859Z,23.3
2018-09-17T12:25:08.138Z,23.3
2018-09-17T12:25:57.675Z,23.3
2018-09-17T12:26:47.685Z,23.3
2018-09-17T12:27:37.761Z,23.3
2018-09-17T12:28:27.626Z,23.3
2018-09-17T12:29:17.869Z,23.3
2018-09-17T12:30:08.258Z,23.3
2018-09-17T12:30:57.836Z,23.3
2018-09-17T12:31:48.073Z,23.3
2018-09-17T12:32:38.118Z,23.4
2018-09-17T12:33:28.910Z,23.4
2018-09-17T12:34:18.597Z,23.4
2018-09-17T12:35:08.598Z,23.4
2018-09-17T12:35:58.696Z,23.4
2018-09-17T12:36:48.753Z,23.4
2018-09-17T12:37:38.070Z,23.4
2018-09-17T12:38:28.366Z,23.4
2018-09-17T12:39:18.983Z,23.4
2018-09-17T12:40:08.983Z,23.4
2018-09-17T12:40:58.785Z,23.4
2018-09-17T12:41:49.105Z,23.4
2018-09-17T12:42:39.446Z,23.4
2018-09-17T12:43:29.778Z,23.4
2018-09-17T12:44:19.603Z,23.4
2018-09-17T12:45:09.431Z,23.4
2018-09-17T12:46:00.685Z,23.4
2018-09-17T12:46:49.482Z,23.4
2018-09-17T12:47:39.583Z,23.4
2018-09-17T12:48:29.390Z,23.4
2018-09-17T12:49:19.677Z,23.5
2018-09-17T12:50:09.758Z,23.4
2018-09-17T12:50:59.412Z,23.5
2018-09-17T12:51:49.710Z,23.4
2018-09-17T12:52:39.762Z,23.5
2018-09-17T12:53:30.054Z,23.5
2018-09-17T12:54:20.306Z,23.5
2018-09-17T12:55:10.400Z,23.5
2018-09-17T12:56:00.203Z,23.5
2018-09-17T12:56:49.837Z,23.5
2018-09-17T12:57:40.581Z,23.5
2018-09-17T12:58:31.164Z,23.5
2018-09-17T12:59:20.452Z,23.5
2018-09-17T13:00:10.815Z,23.5
2018-09-17T13:01:01.050Z,23.5
2018-09-17T13:01:50.357Z,23.5
2018-09-17T13:02:41.277Z,23.5
2018-09-17T13:03:31.795Z,23.5
2018-09-17T13:04:20.573Z,23.5
2018-09-17T13:05:10.659Z,23.5
2018-09-17T13:06:00.371Z,23.6
2018-09-17T13:06:51.349Z,23.6
2018-09-17T13:07:40.757Z,23.6
2018-09-17T13:08:31.461Z,23.6
2018-09-17T13:09:20.914Z,23.6
2018-09-17T13:10:11.541Z,23.6
2018-09-17T13:11:01.380Z,23.6
2018-09-17T13:11:51.120Z,23.6
2018-09-17T13:12:42.061Z,23.6
2018-09-17T13:13:31.554Z,23.6
2018-09-17T13:14:21.949Z,23.6
2018-09-17T13:15:11.687Z,23.6
2018-09-17T13:16:01.732Z,23.6
2018-09-17T13:16:52.058Z,23.6
2018-09-17T13:17:41.901Z,23.6
2018-09-17T13:18:32.244Z,23.6